createdAt,value
2019-06-26T00:00:41.675Z,10.85
2019-06-26T00:03:09.116Z,11.85
2019-06-26T00:05:36.696Z,12.13
2019-06-26T00:08:04.460Z,13.00
2019-06-26T00:10:32.377Z,13.15
2019-06-26T00:13:00.145Z,11.78
2019-06-26T00:15:27.645Z,12.25
2019-06-26T00:17:55.173Z,12.13
2019-06-26T00:20:22.666Z,11.85
2019-06-26T00:22:50.494Z,11.83
2019-06-26T00:25:18.304Z,11.57
2019-06-26T00:27:45.800Z,11.70
2019-06-26T00:30:15.580Z,12.18
2019-06-26T00:32:43.155Z,12.37
2019-06-26T00:35:10.779Z,12.90
2019-06-26T00:37:38.325Z,12.45
2019-06-26T00:40:05.810Z,11.63
2019-06-26T00:42:33.685Z,12.30
2019-06-26T00:45:01.145Z,12.58
2019-06-26T00:47:28.682Z,12.90
2019-06-26T00:49:56.461Z,12.15
2019-06-26T00:52:23.973Z,12.23
2019-06-26T00:54:51.375Z,11.75
2019-06-26T00:57:18.905Z,12.80
2019-06-26T00:59:46.441Z,12.55
2019-06-26T01:02:14.310Z,12.80
2019-06-26T01:04:44.457Z,12.37
2019-06-26T01:07:11.947Z,13.18
2019-06-26T01:09:39.595Z,13.72
2019-06-26T01:12:07.166Z,13.38
2019-06-26T01:14:34.656Z,13.13
2019-06-26T01:17:02.264Z,13.30
2019-06-26T01:19:29.702Z,13.55
2019-06-26T01:21:57.259Z,13.18
2019-06-26T01:24:24.907Z,13.50
2019-06-26T01:26:52.463Z,13.98
2019-06-26T01:29:20.245Z,13.15
2019-06-26T01:31:47.696Z,13.72
2019-06-26T01:34:15.160Z,14.20
2019-06-26T01:36:42.637Z,14.10
2019-06-26T01:39:10.524Z,12.55
2019-06-26T01:41:37.974Z,13.53
2019-06-26T01:44:14.860Z,13.88
2019-06-26T01:46:35.188Z,14.35
2019-06-26T01:49:02.696Z,14.78
2019-06-26T01:51:30.257Z,13.32
2019-06-26T01:53:57.791Z,14.90
2019-06-26T01:56:25.842Z,14.90
2019-06-26T01:58:53.343Z,14.40
2019-06-26T02:01:21.141Z,14.15
2019-06-26T02:03:49.074Z,14.18
2019-06-26T02:06:16.627Z,14.40
2019-06-26T02:08:44.131Z,13.22
2019-06-26T02:11:11.921Z,13.83
2019-06-26T02:13:39.436Z,13.65
2019-06-26T02:16:06.915Z,14.38
2019-06-26T02:18:56.815Z,14.68
2019-06-26T02:21:25.017Z,14.20
2019-06-26T02:23:52.553Z,15.00
2019-06-26T02:26:20.383Z,15.75
2019-06-26T02:28:47.900Z,15.05
2019-06-26T02:31:15.374Z,14.98
2019-06-26T02:33:43.159Z,15.63
2019-06-26T02:36:10.851Z,14.30
2019-06-26T02:38:38.678Z,14.25
2019-06-26T02:41:06.185Z,14.95
2019-06-26T02:43:33.982Z,14.98
2019-06-26T02:46:02.148Z,15.28
2019-06-26T02:48:29.785Z,15.48
2019-06-26T02:50:57.296Z,15.50
2019-06-26T02:53:24.797Z,14.98
2019-06-26T02:55:52.674Z,14.73
2019-06-26T02:58:20.243Z,14.95
2019-06-26T03:00:47.804Z,15.63
2019-06-26T03:03:15.582Z,15.58
2019-06-26T03:05:43.074Z,15.30
2019-06-26T03:08:10.634Z,15.72
2019-06-26T03:10:38.118Z,15.98
2019-06-26T03:13:05.574Z,15.58
2019-06-26T03:15:32.999Z,15.08
2019-06-26T03:18:00.498Z,16.17
2019-06-26T03:20:31.675Z,15.68
2019-06-26T03:22:59.147Z,15.45
2019-06-26T03:25:27.051Z,15.45
2019-06-26T03:27:54.912Z,14.83
2019-06-26T03:30:22.427Z,16.70
2019-06-26T03:32:49.943Z,15.75
2019-06-26T03:35:17.761Z,15.58
2019-06-26T03:37:45.167Z,14.65
2019-06-26T03:40:13.443Z,15.30
2019-06-26T03:42:40.827Z,15.80
2019-06-26T03:45:24.237Z,15.53
2019-06-26T03:47:38.219Z,16.70
2019-06-26T03:50:05.699Z,16.17
2019-06-26T03:52:33.257Z,16.25
2019-06-26T03:55:01.083Z,15.63
2019-06-26T03:57:28.615Z,15.53
2019-06-26T03:59:56.117Z,14.73
2019-06-26T04:02:23.549Z,15.10
2019-06-26T04:04:50.949Z,15.88
2019-06-26T04:07:18.677Z,17.07
2019-06-26T04:09:46.619Z,16.27
2019-06-26T04:12:14.131Z,16.23
2019-06-26T04:14:42.011Z,16.70
2019-06-26T04:17:09.416Z,15.98
2019-06-26T04:19:36.794Z,16.57
2019-06-26T04:22:04.243Z,16.42
2019-06-26T04:24:31.702Z,16.07
2019-06-26T04:26:59.639Z,17.00
2019-06-26T04:29:27.417Z,15.85
2019-06-26T04:31:56.059Z,16.15
2019-06-26T04:34:23.599Z,16.45
2019-06-26T04:36:51.174Z,15.70
2019-06-26T04:39:18.645Z,15.88
2019-06-26T04:41:46.056Z,16.12
2019-06-26T04:44:14.206Z,15.18
2019-06-26T04:46:41.630Z,15.70
2019-06-26T04:49:09.072Z,15.48
2019-06-26T04:51:36.875Z,14.70
2019-06-26T04:54:04.393Z,15.63
2019-06-26T04:56:31.861Z,14.83
2019-06-26T04:58:59.948Z,15.00
2019-06-26T05:01:27.428Z,14.95
2019-06-26T05:03:54.879Z,13.90
2019-06-26T05:06:22.349Z,13.95
2019-06-26T05:08:49.748Z,14.13
2019-06-26T05:11:17.329Z,13.53
2019-06-26T05:13:45.083Z,14.90
2019-06-26T05:16:15.726Z,14.85
2019-06-26T05:18:42.305Z,13.80
2019-06-26T05:21:09.773Z,14.05
2019-06-26T05:23:37.194Z,13.40
2019-06-26T05:26:04.714Z,12.80
2019-06-26T05:28:32.147Z,12.98
2019-06-26T05:30:59.717Z,13.22
2019-06-26T05:33:27.238Z,12.33
2019-06-26T05:35:54.675Z,12.05
2019-06-26T05:38:22.467Z,11.25
2019-06-26T05:40:50.048Z,11.57
2019-06-26T05:43:17.934Z,11.95
2019-06-26T05:45:45.532Z,10.93
2019-06-26T05:48:13.058Z,11.55
2019-06-26T05:50:40.580Z,12.00
2019-06-26T05:53:08.044Z,11.35
2019-06-26T05:55:35.943Z,11.43
2019-06-26T05:58:03.453Z,11.38
2019-06-26T06:00:30.886Z,10.82
2019-06-26T06:02:59.119Z,10.85
2019-06-26T06:05:27.064Z,11.20
2019-06-26T06:07:54.449Z,10.95
2019-06-26T06:10:22.287Z,11.55
2019-06-26T06:12:50.067Z,10.72
2019-06-26T06:15:18.818Z,10.43
2019-06-26T06:17:46.326Z,10.53
2019-06-26T06:20:14.300Z,10.80
2019-06-26T06:22:41.979Z,10.85
2019-06-26T06:25:09.422Z,10.15
2019-06-26T06:27:36.883Z,10.23
2019-06-26T06:30:05.893Z,10.08
2019-06-26T06:32:33.460Z,10.18
2019-06-26T06:35:00.996Z,9.50
2019-06-26T06:37:28.870Z,9.75
2019-06-26T06:39:56.551Z,9.78
2019-06-26T06:42:24.148Z,9.88
2019-06-26T06:44:51.876Z,9.18
2019-06-26T06:47:19.612Z,9.25
2019-06-26T06:49:47.064Z,9.15
2019-06-26T06:52:16.577Z,9.13
2019-06-26T06:54:44.186Z,9.75
2019-06-26T06:57:11.683Z,9.43
2019-06-26T06:59:39.170Z,8.78
2019-06-26T07:02:06.674Z,9.20
2019-06-26T07:04:34.102Z,8.63
2019-06-26T07:07:01.937Z,8.60
2019-06-26T07:09:32.367Z,8.23
2019-06-26T07:11:59.947Z,8.93
2019-06-26T07:14:27.460Z,8.35
2019-06-26T07:16:55.427Z,8.70
2019-06-26T07:19:22.972Z,8.58
2019-06-26T07:21:50.499Z,9.10
2019-06-26T07:24:18.009Z,8.05
2019-06-26T07:26:45.562Z,8.70
2019-06-26T07:29:13.154Z,8.30
2019-06-26T07:31:40.715Z,8.48
2019-06-26T07:34:08.826Z,8.50
2019-06-26T07:36:36.274Z,8.95
2019-06-26T07:39:05.156Z,9.03
2019-06-26T07:41:32.935Z,8.43
2019-06-26T07:44:00.755Z,8.30
2019-06-26T07:46:28.259Z,8.55
2019-06-26T07:48:57.616Z,8.88
2019-06-26T07:51:25.062Z,9.08
2019-06-26T07:53:52.700Z,8.95
2019-06-26T07:56:20.374Z,8.55
2019-06-26T07:58:48.102Z,8.63
2019-06-26T08:01:15.681Z,8.70
2019-06-26T08:03:43.488Z,8.70
2019-06-26T08:06:11.011Z,8.03
2019-06-26T08:08:38.497Z,7.72
2019-06-26T08:11:06.709Z,7.92
2019-06-26T08:13:34.502Z,7.72
2019-06-26T08:16:02.024Z,8.10
2019-06-26T08:18:29.572Z,8.40
2019-06-26T08:21:11.577Z,8.05
2019-06-26T08:23:26.479Z,7.95
2019-06-26T08:25:54.062Z,7.60
2019-06-26T08:28:21.556Z,8.08
2019-06-26T08:30:48.882Z,8.50
2019-06-26T08:33:16.656Z,8.03
2019-06-26T08:35:44.239Z,7.28
2019-06-26T08:38:15.497Z,7.22
2019-06-26T08:40:40.985Z,7.50
2019-06-26T08:43:08.468Z,7.58
2019-06-26T08:45:36.138Z,6.37
2019-06-26T08:48:17.443Z,6.50
2019-06-26T08:50:32.989Z,6.40
2019-06-26T08:53:00.809Z,7.03
2019-06-26T08:55:28.173Z,6.55
2019-06-26T08:57:55.680Z,6.75
2019-06-26T09:00:23.287Z,6.50
2019-06-26T09:02:51.023Z,6.20
2019-06-26T09:05:18.581Z,6.47
2019-06-26T09:07:46.234Z,5.83
2019-06-26T09:10:13.859Z,5.62
2019-06-26T09:12:41.740Z,5.83
2019-06-26T09:15:09.641Z,5.58
2019-06-26T09:17:37.133Z,5.37
2019-06-26T09:20:05.472Z,5.60
2019-06-26T09:22:33.098Z,5.10
2019-06-26T09:25:00.947Z,5.17
2019-06-26T09:27:28.330Z,4.95
2019-06-26T09:29:55.838Z,4.83
2019-06-26T09:32:23.280Z,4.40
2019-06-26T09:34:50.779Z,4.83
2019-06-26T09:37:18.252Z,4.83
2019-06-26T09:39:45.762Z,4.15
2019-06-26T09:42:13.337Z,3.67
2019-06-26T09:44:41.148Z,4.00
2019-06-26T09:47:09.467Z,4.30
2019-06-26T09:49:36.970Z,4.10
2019-06-26T09:52:04.382Z,4.42
2019-06-26T09:54:32.082Z,3.70
2019-06-26T09:56:59.479Z,3.90
2019-06-26T09:59:26.925Z,4.05
2019-06-26T10:01:54.448Z,3.90
2019-06-26T10:04:21.996Z,4.00
2019-06-26T10:06:49.459Z,3.50
2019-06-26T10:09:16.885Z,3.60
2019-06-26T10:11:44.320Z,3.72
2019-06-26T10:14:11.872Z,3.60
2019-06-26T10:16:39.685Z,4.03
2019-06-26T10:19:10.559Z,4.10
2019-06-26T10:21:37.046Z,3.95
2019-06-26T10:24:04.553Z,3.65
2019-06-26T10:26:32.766Z,4.05
2019-06-26T10:29:00.634Z,3.98
2019-06-26T10:31:28.459Z,3.67
2019-06-26T10:33:56.202Z,3.60
2019-06-26T10:36:24.803Z,3.35
2019-06-26T10:38:52.360Z,3.35
2019-06-26T10:41:19.907Z,3.30
2019-06-26T10:43:47.435Z,3.33
2019-06-26T10:46:14.995Z,3.22
2019-06-26T10:48:42.357Z,3.40
2019-06-26T10:51:09.889Z,3.10
2019-06-26T10:53:37.418Z,3.15
2019-06-26T10:56:04.921Z,2.80
2019-06-26T10:58:32.436Z,2.90
2019-06-26T11:00:59.970Z,2.55
2019-06-26T11:03:27.498Z,2.52
2019-06-26T11:05:55.017Z,2.60
2019-06-26T11:08:22.543Z,3.10
2019-06-26T11:10:50.375Z,3.10
2019-06-26T11:13:17.796Z,3.12
2019-06-26T11:15:45.523Z,3.20
2019-06-26T11:18:13.243Z,3.12
2019-06-26T11:20:40.805Z,2.80
2019-06-26T11:23:08.306Z,2.80
2019-06-26T11:25:36.157Z,2.80
2019-06-26T11:28:03.725Z,2.62
2019-06-26T11:30:31.420Z,2.90
2019-06-26T11:32:58.962Z,2.98
2019-06-26T11:35:26.491Z,3.00
2019-06-26T11:37:53.949Z,2.83
2019-06-26T11:40:22.181Z,2.80
2019-06-26T11:42:49.679Z,2.77
2019-06-26T11:45:17.393Z,2.60
2019-06-26T11:47:46.036Z,2.80
2019-06-26T11:50:14.389Z,2.58
2019-06-26T11:52:41.901Z,2.65
2019-06-26T11:55:10.663Z,2.55
2019-06-26T11:57:38.655Z,2.27
2019-06-26T12:00:08.197Z,2.80
2019-06-26T12:02:35.702Z,3.20
2019-06-26T12:05:04.033Z,2.55
2019-06-26T12:07:31.415Z,2.90
2019-06-26T12:09:58.900Z,2.83
2019-06-26T12:12:26.459Z,3.02
2019-06-26T12:14:53.998Z,2.65
2019-06-26T12:17:21.554Z,2.87
2019-06-26T12:19:49.286Z,3.00
2019-06-26T12:22:17.129Z,2.72
2019-06-26T12:24:44.492Z,3.00
2019-06-26T12:27:12.418Z,3.67
2019-06-26T12:29:40.135Z,3.98
2019-06-26T12:32:07.584Z,4.10
2019-06-26T12:34:35.450Z,4.42
2019-06-26T12:37:02.864Z,5.05
2019-06-26T12:39:30.648Z,5.00
2019-06-26T12:41:58.192Z,4.78
2019-06-26T12:44:26.030Z,5.53
2019-06-26T12:46:53.527Z,5.00
2019-06-26T12:49:21.228Z,5.40
2019-06-26T12:51:49.033Z,5.40
2019-06-26T12:54:16.539Z,5.58
2019-06-26T12:56:44.125Z,5.40
2019-06-26T12:59:11.950Z,5.42
2019-06-26T13:01:39.341Z,5.60
2019-06-26T13:04:06.886Z,5.08
2019-06-26T13:06:34.923Z,5.40
2019-06-26T13:09:02.680Z,5.60
2019-06-26T13:11:30.283Z,5.08
2019-06-26T13:14:02.496Z,5.05
2019-06-26T13:16:27.473Z,5.00
2019-06-26T13:18:55.668Z,5.37
2019-06-26T13:21:23.236Z,5.25
2019-06-26T13:23:50.583Z,5.00
2019-06-26T13:26:17.998Z,5.22
2019-06-26T13:28:45.462Z,5.05
2019-06-26T13:31:13.223Z,5.35
2019-06-26T13:33:40.724Z,5.10
2019-06-26T13:36:08.221Z,5.97
2019-06-26T13:38:35.701Z,5.95
2019-06-26T13:41:03.688Z,5.33
2019-06-26T13:43:31.493Z,5.58
2019-06-26T13:45:59.439Z,5.78
2019-06-26T13:48:27.430Z,6.08
2019-06-26T13:51:08.915Z,5.92
2019-06-26T13:53:24.881Z,5.95
2019-06-26T13:55:52.633Z,6.00
2019-06-26T13:58:20.214Z,5.53
2019-06-26T14:00:48.010Z,5.62
2019-06-26T14:03:15.485Z,6.10
2019-06-26T14:05:43.016Z,5.33
2019-06-26T14:08:10.490Z,5.50
2019-06-26T14:10:38.477Z,6.58
2019-06-26T14:13:06.055Z,5.85
2019-06-26T14:15:33.617Z,5.35
2019-06-26T14:18:01.705Z,5.10
2019-06-26T14:20:29.198Z,5.72
2019-06-26T14:22:56.673Z,5.58
2019-06-26T14:25:24.160Z,5.72
2019-06-26T14:27:51.661Z,5.55
2019-06-26T14:30:19.373Z,5.72
2019-06-26T14:32:47.129Z,6.12
2019-06-26T14:35:16.630Z,5.78
2019-06-26T14:37:44.112Z,5.40
2019-06-26T14:40:12.203Z,5.50
2019-06-26T14:42:39.792Z,5.72
2019-06-26T14:45:08.012Z,5.87
2019-06-26T14:47:35.768Z,6.35
2019-06-26T14:50:04.266Z,5.92
2019-06-26T14:52:34.851Z,6.67
2019-06-26T14:55:01.460Z,5.83
2019-06-26T14:57:33.196Z,5.78
2019-06-26T15:00:01.552Z,6.25
2019-06-26T15:02:31.799Z,5.70
2019-06-26T15:04:58.476Z,5.95
2019-06-26T15:07:25.999Z,5.53
2019-06-26T15:09:53.755Z,5.97
2019-06-26T15:12:22.098Z,5.70
2019-06-26T15:14:49.550Z,6.08
2019-06-26T15:17:16.970Z,5.72
2019-06-26T15:19:44.549Z,5.80
2019-06-26T15:22:12.047Z,6.37
2019-06-26T15:24:41.738Z,5.90
2019-06-26T15:27:09.916Z,6.05
2019-06-26T15:29:37.761Z,5.35
2019-06-26T15:32:05.888Z,5.92
2019-06-26T15:34:33.776Z,6.10
2019-06-26T15:37:04.371Z,5.72
2019-06-26T15:39:32.216Z,5.70
2019-06-26T15:41:59.735Z,5.92
2019-06-26T15:44:27.529Z,5.60
2019-06-26T15:46:55.061Z,5.80
2019-06-26T15:49:22.514Z,6.00
2019-06-26T15:51:50.314Z,6.15
2019-06-26T15:54:17.986Z,6.67
2019-06-26T15:56:46.743Z,6.30
2019-06-26T15:59:14.236Z,6.03
2019-06-26T16:01:42.186Z,5.92
2019-06-26T16:04:09.753Z,6.30
2019-06-26T16:06:37.270Z,6.28
2019-06-26T16:09:05.276Z,6.00
2019-06-26T16:11:33.125Z,6.03
2019-06-26T16:14:00.912Z,5.92
2019-06-26T16:16:29.120Z,6.30
2019-06-26T16:19:02.286Z,6.25
2019-06-26T16:21:30.068Z,5.45
2019-06-26T16:23:58.046Z,5.92
2019-06-26T16:26:25.812Z,5.97
2019-06-26T16:28:53.518Z,6.40
2019-06-26T16:31:21.874Z,5.80
2019-06-26T16:33:49.611Z,6.10
2019-06-26T16:36:17.002Z,6.12
2019-06-26T16:38:44.656Z,6.33
2019-06-26T16:41:12.501Z,6.35
2019-06-26T16:43:39.961Z,7.05
2019-06-26T16:46:07.469Z,5.87
2019-06-26T16:48:35.088Z,5.70
2019-06-26T16:51:02.688Z,6.15
2019-06-26T16:53:30.317Z,5.70
2019-06-26T16:55:58.434Z,5.97
2019-06-26T16:58:26.355Z,5.70
2019-06-26T17:00:53.919Z,5.75
2019-06-26T17:03:21.922Z,5.42
2019-06-26T17:05:49.442Z,5.87
2019-06-26T17:08:17.392Z,6.10
2019-06-26T17:10:44.979Z,5.72
2019-06-26T17:13:12.324Z,5.78
2019-06-26T17:15:39.765Z,5.92
2019-06-26T17:18:07.262Z,5.58
2019-06-26T17:20:34.758Z,5.53
2019-06-26T17:23:06.201Z,5.80
2019-06-26T17:25:32.044Z,5.45
2019-06-26T17:27:59.615Z,5.53
2019-06-26T17:30:27.162Z,5.85
2019-06-26T17:32:55.187Z,5.60
2019-06-26T17:35:22.534Z,5.50
2019-06-26T17:37:50.019Z,5.97
2019-06-26T17:40:17.659Z,5.45
2019-06-26T17:42:45.202Z,5.55
2019-06-26T17:45:22.696Z,5.67
2019-06-26T17:47:50.760Z,5.90
2019-06-26T17:50:18.436Z,5.65
2019-06-26T17:52:45.904Z,5.75
2019-06-26T17:55:13.599Z,5.45
2019-06-26T17:57:41.011Z,6.10
2019-06-26T18:00:09.410Z,5.58
2019-06-26T18:02:37.621Z,6.08
2019-06-26T18:05:05.274Z,5.90
2019-06-26T18:07:32.870Z,5.60
2019-06-26T18:10:00.471Z,5.62
2019-06-26T18:12:27.987Z,5.75
2019-06-26T18:14:55.515Z,5.80
2019-06-26T18:17:23.234Z,5.83
2019-06-26T18:19:53.824Z,6.03
2019-06-26T18:22:20.713Z,6.65
2019-06-26T18:24:49.017Z,5.85
2019-06-26T18:27:16.772Z,5.97
2019-06-26T18:29:44.285Z,5.92
2019-06-26T18:32:12.259Z,6.10
2019-06-26T18:34:40.179Z,5.65
2019-06-26T18:37:09.219Z,6.25
2019-06-26T18:39:37.444Z,5.35
2019-06-26T18:42:05.395Z,6.05
2019-06-26T18:44:32.894Z,6.28
2019-06-26T18:47:00.447Z,6.25
2019-06-26T18:49:28.218Z,5.87
2019-06-26T18:51:56.092Z,6.03
2019-06-26T18:54:24.237Z,6.35
2019-06-26T18:56:52.091Z,6.28
2019-06-26T18:59:19.566Z,6.55
2019-06-26T19:01:46.933Z,6.40
2019-06-26T19:04:15.185Z,6.30
2019-06-26T19:06:43.594Z,6.58
2019-06-26T19:09:10.989Z,6.65
2019-06-26T19:11:38.370Z,7.25
2019-06-26T19:14:06.537Z,8.38
2019-06-26T19:16:36.252Z,8.30
2019-06-26T19:19:03.976Z,8.58
2019-06-26T19:21:31.545Z,7.90
2019-06-26T19:24:09.502Z,7.30
2019-06-26T19:26:28.676Z,6.67
2019-06-26T19:28:56.784Z,9.60
2019-06-26T19:31:24.361Z,8.85
2019-06-26T19:33:52.485Z,8.90
2019-06-26T19:36:24.188Z,9.30
2019-06-26T19:38:49.671Z,8.50
2019-06-26T19:41:17.184Z,7.78
2019-06-26T19:43:44.561Z,8.23
2019-06-26T19:46:12.045Z,8.38
2019-06-26T19:48:39.869Z,7.97
2019-06-26T19:51:07.402Z,8.18
2019-06-26T19:53:35.183Z,8.15
2019-06-26T19:56:02.728Z,8.10
2019-06-26T19:58:30.442Z,9.38
2019-06-26T20:00:58.172Z,13.80
2019-06-26T20:03:25.696Z,15.58
2019-06-26T20:05:53.526Z,14.23
2019-06-26T20:08:21.344Z,12.98
2019-06-26T20:10:48.865Z,12.37
2019-06-26T20:13:16.999Z,18.07
2019-06-26T20:15:44.487Z,15.40
2019-06-26T20:18:12.347Z,15.28
2019-06-26T20:20:39.880Z,16.67
2019-06-26T20:23:07.789Z,15.03
2019-06-26T20:25:35.239Z,12.73
2019-06-26T20:28:02.679Z,13.15
2019-06-26T20:30:32.634Z,14.43
2019-06-26T20:33:00.222Z,9.80
2019-06-26T20:35:27.703Z,9.70
2019-06-26T20:37:55.067Z,9.65
2019-06-26T20:40:22.495Z,9.23
2019-06-26T20:42:49.989Z,9.40
2019-06-26T20:45:17.520Z,9.73
2019-06-26T20:47:44.991Z,10.08
2019-06-26T20:50:13.656Z,9.58
2019-06-26T20:52:41.679Z,9.70
2019-06-26T20:55:09.509Z,10.03
2019-06-26T20:57:36.937Z,11.25
2019-06-26T21:00:04.745Z,11.73
2019-06-26T21:02:32.182Z,11.70
2019-06-26T21:04:59.931Z,12.23
2019-06-26T21:07:27.857Z,9.88
2019-06-26T21:09:55.357Z,10.58
2019-06-26T21:12:23.324Z,11.08
2019-06-26T21:14:50.844Z,10.88
2019-06-26T21:17:18.311Z,11.55
2019-06-26T21:19:46.088Z,11.05
2019-06-26T21:22:13.606Z,10.50
2019-06-26T21:24:41.153Z,10.58
2019-06-26T21:27:08.636Z,11.20
2019-06-26T21:29:36.193Z,10.40
2019-06-26T21:32:03.700Z,11.28
2019-06-26T21:34:31.178Z,11.97
2019-06-26T21:36:58.549Z,11.65
2019-06-26T21:39:26.737Z,14.20
2019-06-26T21:41:54.289Z,12.07
2019-06-26T21:44:21.776Z,11.85
2019-06-26T21:46:49.598Z,12.53
2019-06-26T21:49:17.157Z,12.35
2019-06-26T21:51:44.916Z,11.95
2019-06-26T21:54:12.368Z,12.05
2019-06-26T21:56:39.731Z,12.18
2019-06-26T21:59:07.517Z,12.95
2019-06-26T22:01:35.445Z,12.55
2019-06-26T22:04:03.758Z,13.10
2019-06-26T22:06:31.269Z,13.28
2019-06-26T22:08:58.749Z,12.60
2019-06-26T22:11:26.963Z,12.33
2019-06-26T22:13:54.467Z,13.25
2019-06-26T22:16:22.633Z,13.05
2019-06-26T22:18:49.979Z,12.80
2019-06-26T22:21:18.026Z,12.82
2019-06-26T22:23:45.491Z,13.08
2019-06-26T22:26:14.431Z,13.60
2019-06-26T22:28:42.056Z,13.98
2019-06-26T22:31:09.556Z,13.72
2019-06-26T22:33:37.023Z,13.10
2019-06-26T22:36:04.546Z,13.50
2019-06-26T22:38:32.337Z,14.73
2019-06-26T22:41:00.178Z,13.83
2019-06-26T22:43:27.573Z,12.80
2019-06-26T22:45:55.299Z,12.82
2019-06-26T22:48:22.992Z,13.00
2019-06-26T22:50:50.502Z,13.32
2019-06-26T22:53:17.953Z,13.70
2019-06-26T22:55:45.393Z,14.38
2019-06-26T22:58:12.865Z,15.53
2019-06-26T23:00:40.660Z,14.38
2019-06-26T23:03:08.165Z,15.70
2019-06-26T23:05:36.346Z,14.30
2019-06-26T23:08:03.853Z,14.18
2019-06-26T23:10:31.753Z,14.80
2019-06-26T23:12:59.244Z,14.38
2019-06-26T23:15:26.803Z,14.23
2019-06-26T23:17:54.779Z,14.93
2019-06-26T23:20:22.146Z,15.38
2019-06-26T23:22:49.667Z,15.50
2019-06-26T23:25:17.172Z,16.37
2019-06-26T23:27:44.768Z,16.50
2019-06-26T23:30:17.850Z,16.27
2019-06-26T23:32:45.737Z,15.90
2019-06-26T23:35:13.377Z,16.87
2019-06-26T23:37:42.005Z,17.62
2019-06-26T23:40:10.025Z,17.35
2019-06-26T23:42:37.557Z,17.12
2019-06-26T23:45:05.423Z,17.37
2019-06-26T23:47:33.097Z,17.75
2019-06-26T23:50:00.845Z,17.23
2019-06-26T23:52:28.237Z,18.77
2019-06-26T23:54:55.788Z,17.95
2019-06-26T23:57:23.572Z,18.25
2019-06-26T23:59:51.619Z,18.42
